createdAt,value
2019-05-10T00:02:01.472Z,55.90
2019-05-10T00:04:49.176Z,56.00
2019-05-10T00:07:36.585Z,55.79
2019-05-10T00:10:05.880Z,55.48
2019-05-10T00:12:47.018Z,55.35
2019-05-10T00:15:18.846Z,55.16
2019-05-10T00:17:50.541Z,55.16
2019-05-10T00:20:20.564Z,55.13
2019-05-10T00:22:50.657Z,55.17
2019-05-10T00:25:20.681Z,55.58
2019-05-10T00:27:50.801Z,55.69
2019-05-10T00:30:20.909Z,55.70
2019-05-10T00:32:50.949Z,55.58
2019-05-10T00:35:21.081Z,55.42
2019-05-10T00:37:51.114Z,55.23
2019-05-10T00:40:21.153Z,55.36
2019-05-10T00:42:51.291Z,55.47
2019-05-10T00:45:21.342Z,55.74
2019-05-10T00:47:51.386Z,55.76
2019-05-10T00:50:21.413Z,55.68
2019-05-10T00:52:51.554Z,55.45
2019-05-10T00:55:21.592Z,55.41
2019-05-10T00:57:51.634Z,55.56
2019-05-10T01:00:21.702Z,55.61
2019-05-10T01:02:51.710Z,55.67
2019-05-10T01:05:21.766Z,55.66
2019-05-10T01:07:51.776Z,55.70
2019-05-10T01:10:21.821Z,55.73
2019-05-10T01:12:51.913Z,55.81
2019-05-10T01:15:21.960Z,56.13
2019-05-10T01:17:51.981Z,56.30
2019-05-10T01:20:22.005Z,56.55
2019-05-10T01:22:52.064Z,56.66
2019-05-10T01:25:34.792Z,56.79
2019-05-10T01:27:53.894Z,56.90
2019-05-10T01:30:23.921Z,56.90
2019-05-10T01:32:54.025Z,56.96
2019-05-10T01:35:24.073Z,57.44
2019-05-10T01:37:54.081Z,58.26
2019-05-10T01:40:24.113Z,58.52
2019-05-10T01:42:54.224Z,58.97
2019-05-10T01:45:24.192Z,59.33
2019-05-10T01:47:54.231Z,59.54
2019-05-10T01:50:24.324Z,59.20
2019-05-10T01:52:54.335Z,58.71
2019-05-10T01:55:24.386Z,58.19
2019-05-10T01:57:54.412Z,58.30
2019-05-10T02:00:24.452Z,58.57
2019-05-10T02:02:54.504Z,58.64
2019-05-10T02:05:24.533Z,58.51
2019-05-10T02:07:55.543Z,58.32
2019-05-10T02:10:25.563Z,58.11
2019-05-10T02:12:56.399Z,57.87
2019-05-10T02:15:26.428Z,58.30
2019-05-10T02:17:56.481Z,58.54
2019-05-10T02:20:26.573Z,59.02
2019-05-10T02:22:57.729Z,59.28
2019-05-10T02:25:27.772Z,59.39
2019-05-10T02:27:57.821Z,59.35
2019-05-10T02:30:27.848Z,59.55
2019-05-10T02:32:57.892Z,59.45
2019-05-10T02:35:27.924Z,59.57
2019-05-10T02:37:57.948Z,59.47
2019-05-10T02:40:27.969Z,59.47
2019-05-10T02:42:58.043Z,59.38
2019-05-10T02:45:28.100Z,59.31
2019-05-10T02:47:58.139Z,59.17
2019-05-10T02:50:28.197Z,58.93
2019-05-10T02:52:58.216Z,58.66
2019-05-10T02:55:28.282Z,58.38
2019-05-10T02:57:58.302Z,58.26
2019-05-10T03:00:28.381Z,58.22
2019-05-10T03:02:58.395Z,58.17
2019-05-10T03:05:28.709Z,58.34
2019-05-10T03:07:58.970Z,58.47
2019-05-10T03:10:31.912Z,58.55
2019-05-10T03:13:02.287Z,58.43
2019-05-10T03:15:36.327Z,58.08
2019-05-10T03:18:06.398Z,57.37
2019-05-10T03:20:36.792Z,57.06
2019-05-10T03:23:08.679Z,57.07
2019-05-10T03:25:38.695Z,57.16
2019-05-10T03:28:08.748Z,56.92
2019-05-10T03:30:38.775Z,57.10
2019-05-10T03:33:08.861Z,57.38
2019-05-10T03:35:38.855Z,57.72
2019-05-10T03:38:08.933Z,57.99
2019-05-10T03:40:39.000Z,58.25
2019-05-10T03:43:09.068Z,58.20
2019-05-10T03:45:39.101Z,58.03
2019-05-10T03:48:09.135Z,57.88
2019-05-10T03:50:39.146Z,57.85
2019-05-10T03:53:09.200Z,57.93
2019-05-10T03:55:39.236Z,57.80
2019-05-10T03:58:09.269Z,57.65
2019-05-10T04:00:39.373Z,57.62
2019-05-10T04:03:09.402Z,57.82
2019-05-10T04:05:39.442Z,57.86
2019-05-10T04:08:09.465Z,58.07
2019-05-10T04:10:39.517Z,58.48
2019-05-10T04:13:09.548Z,58.52
2019-05-10T04:15:39.593Z,58.61
2019-05-10T04:18:09.645Z,59.26
2019-05-10T04:20:39.693Z,59.66
2019-05-10T04:23:09.713Z,59.56
2019-05-10T04:25:39.764Z,59.27
2019-05-10T04:28:09.795Z,59.17
2019-05-10T04:30:39.823Z,59.14
2019-05-10T04:33:09.894Z,59.31
2019-05-10T04:35:39.914Z,59.67
2019-05-10T04:38:09.945Z,59.96
2019-05-10T04:40:39.951Z,59.87
2019-05-10T04:43:10.012Z,59.49
2019-05-10T04:45:40.071Z,59.12
2019-05-10T04:48:10.092Z,59.13
2019-05-10T04:50:40.208Z,59.30
2019-05-10T04:53:10.223Z,59.44
2019-05-10T04:55:40.243Z,59.63
2019-05-10T04:58:10.309Z,59.79
2019-05-10T05:00:40.314Z,59.80
2019-05-10T05:03:10.360Z,59.94
2019-05-10T05:05:40.423Z,60.17
2019-05-10T05:08:10.412Z,60.44
2019-05-10T05:10:40.424Z,60.77
2019-05-10T05:13:10.457Z,60.89
2019-05-10T05:15:40.462Z,60.93
2019-05-10T05:18:10.545Z,61.00
2019-05-10T05:20:40.663Z,60.99
2019-05-10T05:23:10.719Z,60.76
2019-05-10T05:25:41.857Z,60.68
2019-05-10T05:28:11.946Z,60.71
2019-05-10T05:30:41.978Z,60.79
2019-05-10T05:33:11.980Z,60.95
2019-05-10T05:35:42.021Z,61.15
2019-05-10T05:38:12.031Z,61.32
2019-05-10T05:40:42.055Z,61.33
2019-05-10T05:43:12.084Z,61.38
2019-05-10T05:45:42.110Z,61.32
2019-05-10T05:48:15.980Z,61.56
2019-05-10T05:50:43.892Z,61.81
2019-05-10T05:53:13.948Z,61.89
2019-05-10T05:55:43.970Z,61.89
2019-05-10T05:58:25.547Z,62.02
2019-05-10T06:00:46.768Z,62.03
2019-05-10T06:03:19.398Z,61.89
2019-05-10T06:05:48.630Z,61.82
2019-05-10T06:08:22.969Z,61.88
2019-05-10T06:10:57.375Z,61.65
2019-05-10T06:13:23.598Z,61.71
2019-05-10T06:15:53.885Z,61.85
2019-05-10T06:18:23.931Z,61.60
2019-05-10T06:20:53.969Z,61.36
2019-05-10T06:23:24.002Z,61.00
2019-05-10T06:25:54.102Z,60.58
2019-05-10T06:28:26.822Z,60.40
2019-05-10T06:30:55.884Z,59.91
2019-05-10T06:33:25.951Z,59.64
2019-05-10T06:35:55.981Z,59.43
2019-05-10T06:38:26.011Z,59.32
2019-05-10T06:40:56.066Z,59.08
2019-05-10T06:43:26.133Z,58.99
2019-05-10T06:45:56.170Z,59.09
2019-05-10T06:48:29.535Z,58.43
2019-05-10T06:51:02.889Z,58.31
2019-05-10T06:53:29.681Z,58.35
2019-05-10T06:55:59.745Z,57.73
2019-05-10T06:58:30.500Z,57.48
2019-05-10T07:01:01.834Z,57.11
2019-05-10T07:03:31.933Z,56.59
2019-05-10T07:06:01.998Z,56.91
2019-05-10T07:08:43.878Z,56.75
2019-05-10T07:11:03.793Z,56.35
2019-05-10T07:13:34.794Z,56.22
2019-05-10T07:16:04.846Z,56.59
2019-05-10T07:18:34.913Z,56.44
2019-05-10T07:21:06.854Z,55.64
2019-05-10T07:23:39.099Z,55.46
2019-05-10T07:26:09.894Z,55.48
2019-05-10T07:28:40.074Z,55.46
2019-05-10T07:31:10.092Z,55.38
2019-05-10T07:33:40.351Z,55.47
2019-05-10T07:36:14.648Z,55.22
2019-05-10T07:38:42.074Z,54.94
2019-05-10T07:41:12.120Z,54.70
2019-05-10T07:43:42.143Z,54.69
2019-05-10T07:46:12.190Z,54.60
2019-05-10T07:48:47.342Z,54.82
2019-05-10T07:51:13.969Z,54.51
2019-05-10T07:53:44.110Z,54.53
2019-05-10T07:56:14.154Z,54.55
2019-05-10T07:58:44.940Z,54.85
2019-05-10T08:01:15.106Z,54.84
2019-05-10T08:03:51.828Z,54.04
2019-05-10T08:06:19.249Z,54.01
2019-05-10T08:08:49.680Z,53.68
2019-05-10T08:11:19.835Z,53.14
2019-05-10T08:13:49.899Z,53.48
2019-05-10T08:16:22.895Z,53.36
2019-05-10T08:18:55.760Z,52.83
2019-05-10T08:21:26.291Z,52.21
2019-05-10T08:23:58.972Z,51.74
2019-05-10T08:26:26.998Z,51.66
2019-05-10T08:28:57.052Z,52.10
2019-05-10T08:31:33.897Z,52.30
2019-05-10T08:33:59.297Z,51.92
2019-05-10T08:36:29.333Z,51.82
2019-05-10T08:39:07.636Z,51.93
2019-05-10T08:41:32.676Z,52.04
2019-05-10T08:44:04.879Z,51.62
2019-05-10T08:46:40.992Z,52.01
2019-05-10T08:49:06.430Z,52.19
2019-05-10T08:51:43.819Z,52.34
2019-05-10T08:54:08.244Z,52.54
2019-05-10T08:56:38.414Z,51.99
2019-05-10T08:59:09.628Z,52.16
2019-05-10T09:01:46.878Z,52.25
2019-05-10T09:04:13.789Z,52.25
2019-05-10T09:06:47.408Z,51.97
2019-05-10T09:09:15.348Z,53.29
2019-05-10T09:11:45.501Z,53.15
2019-05-10T09:14:20.303Z,53.06
2019-05-10T09:16:56.403Z,52.77
2019-05-10T09:19:24.320Z,53.15
2019-05-10T09:21:54.805Z,52.66
2019-05-10T09:24:22.921Z,52.68
2019-05-10T09:26:56.987Z,52.41
2019-05-10T09:29:27.317Z,51.57
2019-05-10T09:31:56.440Z,50.82
2019-05-10T09:34:27.292Z,50.62
2019-05-10T09:36:57.406Z,50.84
2019-05-10T09:39:27.441Z,51.36
2019-05-10T09:41:58.475Z,51.18
2019-05-10T09:44:28.514Z,50.62
2019-05-10T09:46:58.546Z,50.64
2019-05-10T09:49:28.603Z,50.47
2019-05-10T09:51:58.707Z,49.46
2019-05-10T09:54:33.376Z,49.93
2019-05-10T09:57:00.500Z,49.68
2019-05-10T09:59:30.603Z,49.18
2019-05-10T10:02:05.094Z,49.05
2019-05-10T10:04:32.385Z,49.21
2019-05-10T10:07:02.478Z,48.93
2019-05-10T10:09:37.296Z,49.63
2019-05-10T10:12:04.293Z,49.52
2019-05-10T10:14:39.443Z,50.13
2019-05-10T10:17:08.096Z,49.17
2019-05-10T10:19:40.668Z,49.76
2019-05-10T10:22:11.518Z,49.30
2019-05-10T10:24:42.343Z,49.37
2019-05-10T10:27:12.409Z,49.14
2019-05-10T10:29:42.424Z,49.84
2019-05-10T10:32:12.468Z,49.41
2019-05-10T10:34:43.166Z,49.02
2019-05-10T10:37:14.736Z,48.46
2019-05-10T10:39:47.522Z,47.50
2019-05-10T10:42:17.650Z,47.78
2019-05-10T10:44:48.762Z,47.74
2019-05-10T10:47:22.945Z,47.62
2019-05-10T10:49:50.539Z,47.22
2019-05-10T10:52:20.545Z,46.94
2019-05-10T10:54:50.569Z,46.95
2019-05-10T10:57:20.621Z,47.14
2019-05-10T10:59:50.636Z,48.39
2019-05-10T11:02:32.718Z,48.52
2019-05-10T11:04:53.378Z,49.11
2019-05-10T11:07:23.417Z,50.03
2019-05-10T11:10:05.025Z,50.57
2019-05-10T11:12:25.175Z,50.84
2019-05-10T11:14:55.271Z,51.59
2019-05-10T11:17:25.305Z,52.96
2019-05-10T11:19:55.376Z,53.96
2019-05-10T11:22:27.363Z,54.37
2019-05-10T11:25:00.698Z,55.50
2019-05-10T11:27:30.926Z,56.62
2019-05-10T11:30:01.005Z,54.74
2019-05-10T11:32:31.535Z,55.50
2019-05-10T11:35:05.312Z,55.29
2019-05-10T11:37:36.467Z,54.78
2019-05-10T11:40:05.465Z,54.35
2019-05-10T11:42:37.429Z,54.33
2019-05-10T11:45:08.329Z,53.79
2019-05-10T11:47:40.759Z,54.23
2019-05-10T11:50:10.606Z,53.99
2019-05-10T11:52:40.948Z,53.53
2019-05-10T11:55:11.745Z,52.80
2019-05-10T11:57:44.141Z,52.48
2019-05-10T12:00:24.275Z,52.17
2019-05-10T12:03:03.319Z,50.65
2019-05-10T12:05:20.196Z,49.04
2019-05-10T12:07:54.150Z,48.62
2019-05-10T12:10:25.170Z,49.51
2019-05-10T12:13:06.188Z,48.50
2019-05-10T12:15:25.730Z,47.96
2019-05-10T12:20:41.490Z,48.72
2019-05-10T12:23:03.418Z,48.52
2019-05-10T12:25:46.328Z,46.09
2019-05-10T12:26:31.279Z,48.00
2019-05-10T12:28:03.887Z,46.49
2019-05-10T12:30:34.981Z,46.28
2019-05-10T12:33:09.432Z,46.38
2019-05-10T12:35:44.592Z,44.94
2019-05-10T12:38:11.191Z,45.56
2019-05-10T12:40:42.485Z,45.67
2019-05-10T12:43:12.690Z,43.88
2019-05-10T12:45:42.782Z,44.44
2019-05-10T12:48:12.878Z,44.87
2019-05-10T12:50:44.161Z,42.35
2019-05-10T12:53:18.329Z,43.30
2019-05-10T12:55:47.187Z,43.30
2019-05-10T12:58:17.226Z,43.12
2019-05-10T13:00:52.604Z,43.54
2019-05-10T13:03:25.176Z,43.70
2019-05-10T13:05:53.131Z,41.43
2019-05-10T13:08:23.646Z,42.57
2019-05-10T13:10:53.625Z,42.53
2019-05-10T13:13:29.254Z,41.14
2019-05-10T13:15:55.442Z,42.52
2019-05-10T13:18:49.237Z,43.75
2019-05-10T13:20:57.219Z,42.49
2019-05-10T13:23:27.246Z,40.89
2019-05-10T13:25:57.307Z,41.24
2019-05-10T13:28:27.355Z,42.52
2019-05-10T13:30:59.943Z,41.75
2019-05-10T13:33:29.644Z,42.45
2019-05-10T13:36:00.982Z,42.10
2019-05-10T13:38:30.989Z,41.35
2019-05-10T13:41:01.028Z,40.69
2019-05-10T13:43:31.062Z,41.01
2019-05-10T13:46:01.089Z,41.04
2019-05-10T13:48:31.138Z,40.71
2019-05-10T13:51:01.224Z,40.38
2019-05-10T13:53:31.283Z,41.17
2019-05-10T13:56:01.344Z,42.00
2019-05-10T13:58:31.434Z,40.34
2019-05-10T14:01:06.565Z,42.27
2019-05-10T14:03:43.679Z,42.56
2019-05-10T14:06:04.929Z,40.93
2019-05-10T14:08:34.981Z,41.23
2019-05-10T14:11:04.997Z,43.91
2019-05-10T14:13:35.638Z,43.90
2019-05-10T14:16:06.779Z,43.04
2019-05-10T14:18:36.814Z,41.49
2019-05-10T14:21:06.875Z,42.08
2019-05-10T14:23:37.355Z,41.87
2019-05-10T14:26:09.400Z,39.95
2019-05-10T14:28:39.143Z,40.77
2019-05-10T14:31:10.266Z,41.79
2019-05-10T14:33:40.290Z,42.92
2019-05-10T14:36:10.348Z,42.65
2019-05-10T14:38:40.356Z,41.97
2019-05-10T14:41:11.327Z,41.46
2019-05-10T14:43:42.153Z,40.92
2019-05-10T14:46:13.900Z,40.69
2019-05-10T14:48:45.090Z,40.30
2019-05-10T14:51:15.142Z,41.02
2019-05-10T14:53:45.164Z,39.87
2019-05-10T14:56:16.174Z,40.20
2019-05-10T14:58:46.189Z,40.91
2019-05-10T15:01:16.284Z,39.57
2019-05-10T15:03:47.442Z,39.57
2019-05-10T15:06:17.585Z,39.44
2019-05-10T15:08:47.615Z,41.21
2019-05-10T15:11:17.695Z,41.76
2019-05-10T15:13:47.732Z,42.11
2019-05-10T15:16:26.429Z,40.26
2019-05-10T15:18:49.525Z,40.34
2019-05-10T15:21:19.577Z,41.51
2019-05-10T15:23:49.652Z,41.13
2019-05-10T15:26:19.690Z,41.73
2019-05-10T15:28:49.721Z,42.05
2019-05-10T15:31:23.738Z,41.23
2019-05-10T15:33:51.835Z,40.75
2019-05-10T15:36:23.549Z,41.69
2019-05-10T15:38:53.598Z,42.47
2019-05-10T15:41:24.059Z,43.30
2019-05-10T15:43:55.013Z,41.91
2019-05-10T15:46:36.087Z,42.40
2019-05-10T15:48:57.003Z,42.57
2019-05-10T15:51:35.761Z,43.55
2019-05-10T15:54:04.914Z,42.22
2019-05-10T15:56:30.528Z,41.07
2019-05-10T15:59:00.558Z,40.95
2019-05-10T16:01:30.585Z,41.26
2019-05-10T16:04:00.667Z,38.29
2019-05-10T16:06:32.689Z,38.48
2019-05-10T16:09:02.829Z,36.15
2019-05-10T16:11:34.194Z,37.11
2019-05-10T16:14:04.538Z,38.58
2019-05-10T16:16:37.038Z,39.06
2019-05-10T16:19:06.309Z,38.36
2019-05-10T16:21:36.340Z,37.55
2019-05-10T16:24:06.396Z,38.69
2019-05-10T16:26:36.418Z,38.85
2019-05-10T16:29:06.465Z,39.14
2019-05-10T16:31:36.744Z,39.31
2019-05-10T16:34:06.853Z,39.17
2019-05-10T16:36:36.900Z,40.06
2019-05-10T16:39:07.794Z,40.90
2019-05-10T16:41:37.829Z,40.92
2019-05-10T16:44:07.846Z,41.02
2019-05-10T16:46:37.913Z,40.29
2019-05-10T16:49:10.229Z,38.77
2019-05-10T16:51:42.385Z,39.51
2019-05-10T16:54:13.512Z,40.34
2019-05-10T16:56:43.304Z,41.05
2019-05-10T16:59:13.323Z,40.42
2019-05-10T17:01:43.361Z,40.60
2019-05-10T17:04:13.374Z,40.06
2019-05-10T17:06:43.421Z,39.60
2019-05-10T17:09:18.308Z,39.83
2019-05-10T17:11:46.788Z,40.03
2019-05-10T17:14:17.942Z,39.78
2019-05-10T17:16:49.585Z,39.96
2019-05-10T17:19:20.479Z,40.90
2019-05-10T17:21:50.494Z,41.55
2019-05-10T17:24:23.907Z,42.32
2019-05-10T17:26:52.245Z,42.59
2019-05-10T17:29:22.288Z,41.85
2019-05-10T17:31:52.403Z,41.47
2019-05-10T17:34:28.977Z,40.47
2019-05-10T17:36:57.779Z,41.75
2019-05-10T17:39:32.264Z,42.79
2019-05-10T17:42:03.330Z,43.35
2019-05-10T17:44:30.249Z,43.92
2019-05-10T17:47:00.280Z,42.89
2019-05-10T17:49:30.347Z,42.49
2019-05-10T17:52:00.353Z,41.90
2019-05-10T17:54:33.771Z,42.13
2019-05-10T17:57:02.109Z,42.66
2019-05-10T17:59:32.176Z,42.41
2019-05-10T18:02:02.214Z,42.85
2019-05-10T18:04:32.367Z,42.66
2019-05-10T18:07:02.402Z,42.63
2019-05-10T18:09:32.447Z,42.91
2019-05-10T18:12:02.466Z,43.02
2019-05-10T18:14:32.514Z,43.47
2019-05-10T18:17:02.572Z,43.15
2019-05-10T18:19:32.615Z,43.20
2019-05-10T18:22:06.477Z,43.65
2019-05-10T18:24:38.634Z,43.25
2019-05-10T18:27:07.121Z,41.10
2019-05-10T18:29:37.153Z,40.30
2019-05-10T18:32:10.875Z,40.55
2019-05-10T18:34:38.935Z,40.69
2019-05-10T18:37:08.980Z,40.80
2019-05-10T18:39:39.009Z,41.20
2019-05-10T18:42:09.142Z,42.19
2019-05-10T18:44:39.156Z,42.96
2019-05-10T18:47:09.213Z,44.04
2019-05-10T18:49:39.249Z,44.60
2019-05-10T18:52:09.284Z,44.76
2019-05-10T18:54:39.318Z,45.25
2019-05-10T18:57:12.227Z,45.85
2019-05-10T18:59:45.523Z,46.64
2019-05-10T19:02:17.736Z,47.13
2019-05-10T19:04:45.922Z,47.63
2019-05-10T19:07:16.692Z,47.98
2019-05-10T19:09:46.785Z,48.47
2019-05-10T19:12:18.748Z,48.67
2019-05-10T19:14:48.575Z,48.89
2019-05-10T19:17:18.641Z,49.19
2019-05-10T19:19:48.676Z,49.75
2019-05-10T19:22:18.762Z,49.86
2019-05-10T19:24:48.783Z,50.45
2019-05-10T19:27:18.800Z,50.68
2019-05-10T19:29:48.881Z,51.08
2019-05-10T19:32:20.397Z,51.36
2019-05-10T19:34:57.252Z,51.51
2019-05-10T19:37:31.563Z,51.95
2019-05-10T19:39:54.012Z,52.34
2019-05-10T19:42:24.036Z,52.34
2019-05-10T19:44:54.076Z,52.55
2019-05-10T19:47:24.113Z,52.55
2019-05-10T19:49:54.194Z,52.92
2019-05-10T19:52:26.067Z,53.10
2019-05-10T19:54:55.945Z,53.44
2019-05-10T19:57:25.996Z,53.76
2019-05-10T19:59:56.118Z,54.11
2019-05-10T20:02:26.149Z,54.21
2019-05-10T20:04:56.226Z,54.77
2019-05-10T20:07:26.282Z,55.16
2019-05-10T20:09:56.330Z,55.16
2019-05-10T20:12:26.485Z,55.36
2019-05-10T20:14:56.508Z,55.44
2019-05-10T20:17:26.563Z,55.63
2019-05-10T20:19:56.614Z,55.57
2019-05-10T20:22:26.730Z,55.52
2019-05-10T20:24:56.783Z,55.55
2019-05-10T20:27:26.827Z,55.55
2019-05-10T20:29:56.861Z,55.75
2019-05-10T20:32:26.917Z,55.85
2019-05-10T20:34:56.938Z,56.01
2019-05-10T20:37:26.986Z,56.15
2019-05-10T20:39:57.021Z,56.27
2019-05-10T20:42:27.075Z,56.42
2019-05-10T20:45:06.845Z,56.40
2019-05-10T20:47:28.877Z,56.41
2019-05-10T20:49:58.917Z,56.56
2019-05-10T20:52:28.980Z,56.85
2019-05-10T20:54:59.078Z,57.14
2019-05-10T20:57:29.133Z,57.36
2019-05-10T20:59:59.150Z,57.31
2019-05-10T21:02:29.214Z,57.01
2019-05-10T21:05:01.654Z,56.73
2019-05-10T21:07:31.783Z,56.71
2019-05-10T21:10:01.814Z,56.77
2019-05-10T21:12:31.943Z,56.85
2019-05-10T21:15:02.007Z,56.98
2019-05-10T21:17:32.127Z,57.11
2019-05-10T21:20:02.147Z,57.26
2019-05-10T21:22:32.340Z,57.56
2019-05-10T21:25:02.365Z,57.66
2019-05-10T21:27:33.406Z,57.97
2019-05-10T21:30:03.470Z,58.25
2019-05-10T21:32:34.469Z,58.48
2019-05-10T21:35:04.510Z,58.46
2019-05-10T21:37:34.546Z,58.44
2019-05-10T21:40:04.622Z,58.35
2019-05-10T21:42:34.640Z,58.25
2019-05-10T21:45:04.710Z,58.17
2019-05-10T21:47:34.743Z,58.19
2019-05-10T21:50:04.893Z,57.98
2019-05-10T21:52:34.913Z,57.61
2019-05-10T21:55:05.013Z,57.25
2019-05-10T21:57:35.015Z,56.94
2019-05-10T22:00:05.948Z,56.65
2019-05-10T22:02:37.581Z,56.48
2019-05-10T22:05:07.674Z,56.46
2019-05-10T22:07:38.875Z,56.58
2019-05-10T22:10:09.880Z,56.92
2019-05-10T22:12:39.927Z,56.78
2019-05-10T22:15:09.958Z,56.94
2019-05-10T22:17:40.011Z,57.00
2019-05-10T22:20:11.204Z,57.05
2019-05-10T22:22:41.269Z,57.04
2019-05-10T22:25:11.307Z,56.95
2019-05-10T22:27:41.348Z,56.85
2019-05-10T22:30:12.440Z,56.66
2019-05-10T22:32:42.701Z,56.48
2019-05-10T22:35:12.775Z,56.40
2019-05-10T22:37:43.756Z,56.48
2019-05-10T22:40:13.809Z,56.60
2019-05-10T22:42:43.827Z,56.57
2019-05-10T22:45:13.877Z,56.95
2019-05-10T22:47:43.906Z,57.44
2019-05-10T22:50:13.964Z,57.72
2019-05-10T22:52:43.974Z,57.86
2019-05-10T22:55:14.026Z,57.91
2019-05-10T22:57:44.045Z,57.97
2019-05-10T23:00:14.353Z,58.14
2019-05-10T23:02:44.388Z,58.26
2019-05-10T23:05:15.241Z,58.18
2019-05-10T23:07:45.277Z,58.08
2019-05-10T23:10:15.325Z,58.08
2019-05-10T23:12:45.356Z,58.08
2019-05-10T23:15:15.390Z,58.32
2019-05-10T23:17:45.420Z,58.48
2019-05-10T23:20:15.534Z,58.27
2019-05-10T23:22:45.578Z,58.11
2019-05-10T23:25:15.602Z,57.86
2019-05-10T23:27:45.647Z,57.65
2019-05-10T23:30:15.686Z,57.68
2019-05-10T23:32:45.710Z,57.73
2019-05-10T23:35:15.757Z,57.61
2019-05-10T23:37:45.771Z,57.45
2019-05-10T23:40:15.812Z,57.27
2019-05-10T23:42:45.859Z,57.08
2019-05-10T23:45:15.977Z,57.15
2019-05-10T23:47:45.999Z,57.69
2019-05-10T23:50:16.051Z,58.72
2019-05-10T23:52:46.094Z,58.04
2019-05-10T23:55:16.142Z,57.53
2019-05-10T23:57:46.157Z,57.16
